TPU weather

Tikapur Airport
Tikapur, Seti, Nepal

Public forecast

Using degrees Celsius for public forecast. Weather courtesy of forecast.io.

METAR (pilot weather report)

Report is more than 2 hours old.

Closest report is Pantnagar Airport, 92.1 nm (170.5 km) WNW. Retrieved 2019/09/21 08:00 UTC (3 hours ago):

VIPT 210800Z 29004KT 5000 HZ FEW030 SCT100 32/24 Q1007

TAF (pilot weather forecast)

Forecast is more than 12 hours old.

Closest forecast is Bareilly Air Force Station, 88.5 nm (163.8 km) W. Retrieved 2019/04/27 06:30 UTC (5 months ago):

TAF VIBY 270330Z 2706/2718 29010KT 6000 FEW030 SCT090 TEMPO 2710/2724 6000 FEW030 TCU/CB SCT100